Time;durP1;ratioP1;P1;durP2;ratioP2;P2;SDS_P1;SDS_P2;PMS_P1;PMS_P2;Temp;Humidity;BMP_temperature;BMP_pressure;BME280_temperature;BME280_humidity;BME280_pressure;Samples;Min_cycle;Max_cycle;Signal;HPM_P1;HPM_P2
2022/05/14 00:00:17;;;;;;;3.43;2.70;;;22.20;48.20;23.40;101272.00;;;;4931191;29;20401;-53
2022/05/14 00:02:43;;;;;;;3.47;2.90;;;22.10;48.20;23.40;101265.00;;;;4931252;29;20175;-53
2022/05/14 00:05:09;;;;;;;2.73;2.53;;;22.10;48.20;23.40;101272.00;;;;4930937;29;20487;-53
2022/05/14 00:07:36;;;;;;;2.97;2.57;;;22.10;48.10;23.40;101266.00;;;;4935449;29;20202;-53
2022/05/14 00:10:02;;;;;;;2.77;2.50;;;22.10;48.20;23.30;101259.00;;;;4932204;29;20553;-53
2022/05/14 00:15:12;;;;;;;2.90;2.60;;;22.10;48.10;23.30;101272.00;;;;4931347;29;20241;-53
2022/05/14 00:17:38;;;;;;;3.37;2.70;;;22.10;48.10;23.30;101264.00;;;;4931205;29;20198;-53
2022/05/14 00:20:04;;;;;;;3.23;2.80;;;22.10;48.00;23.30;101266.00;;;;4931053;29;20245;-53
2022/05/14 00:22:30;;;;;;;3.17;2.70;;;22.00;48.00;23.30;101271.00;;;;4930830;29;20655;-52
2022/05/14 00:24:56;;;;;;;3.57;2.63;;;22.00;47.90;23.20;101267.00;;;;4930951;29;20214;-53
2022/05/14 00:27:22;;;;;;;3.13;2.83;;;22.00;48.00;23.20;101263.00;;;;4930440;29;20190;-53
2022/05/14 00:29:48;;;;;;;3.10;2.80;;;22.00;48.00;23.20;101266.00;;;;4931333;29;20424;-52
2022/05/14 00:32:13;;;;;;;2.93;2.70;;;22.00;48.10;23.20;101271.00;;;;4930753;29;20186;-53
2022/05/14 00:34:39;;;;;;;2.83;2.63;;;22.00;48.00;23.20;101263.00;;;;4930863;29;20280;-52
2022/05/14 00:37:05;;;;;;;2.60;2.40;;;21.90;48.00;23.10;101263.00;;;;4930934;29;20551;-52
2022/05/14 00:39:30;;;;;;;2.90;2.50;;;21.90;48.00;23.10;101273.00;;;;4930812;29;20201;-53
2022/05/14 00:41:56;;;;;;;3.80;2.63;;;21.90;48.10;23.10;101262.00;;;;4930416;29;20179;-53
2022/05/14 00:44:22;;;;;;;2.80;2.40;;;21.90;48.10;23.10;101275.00;;;;4930913;29;20189;-53
2022/05/14 00:46:59;;;;;;;2.87;2.57;;;21.90;48.10;23.10;101252.00;;;;4930650;29;20694;-53
2022/05/14 00:49:24;;;;;;;3.70;2.90;;;21.90;48.10;23.00;101273.00;;;;4929263;29;20627;-52
2022/05/14 00:51:50;;;;;;;2.90;2.63;;;21.90;48.10;23.00;101266.00;;;;4941692;29;20261;-52
2022/05/14 00:54:19;;;;;;;3.23;2.93;;;21.90;48.10;23.00;101267.00;;;;4947986;29;20201;-51
2022/05/14 00:56:48;;;;;;;2.73;2.53;;;21.80;48.10;23.00;101273.00;;;;4948111;29;20181;-51
2022/05/14 00:59:17;;;;;;;2.90;2.60;;;21.80;48.20;23.00;101256.00;;;;4947970;29;20193;-52
2022/05/14 01:01:43;;;;;;;3.80;2.70;;;21.80;48.20;23.00;101262.00;;;;4948243;29;20338;-53
2022/05/14 01:04:09;;;;;;;2.80;2.50;;;21.80;48.20;22.90;101266.00;;;;4948054;29;20208;-52
2022/05/14 01:06:36;;;;;;;2.80;2.60;;;21.80;48.80;22.90;101265.00;;;;4949347;28;20265;-51
2022/05/14 01:09:04;;;;;;;2.80;2.60;;;21.70;48.10;22.90;101263.00;;;;4947444;29;20201;-52
2022/05/14 01:11:30;;;;;;;3.93;2.63;;;21.70;48.20;22.90;101268.00;;;;4949473;28;20186;-52
2022/05/14 01:13:56;;;;;;;3.00;2.70;;;21.70;48.10;22.90;101264.00;;;;4947808;29;20198;-52
2022/05/14 01:16:22;;;;;;;3.37;2.43;;;21.70;48.30;22.80;101257.00;;;;4948931;28;20243;-52
2022/05/14 01:18:49;;;;;;;2.80;2.60;;;21.70;48.30;22.80;101263.00;;;;4948804;29;20201;-52
2022/05/14 01:21:43;;;;;;;3.17;2.67;;;21.60;48.20;22.80;101246.00;;;;4949047;28;20189;-53
2022/05/14 01:27:36;;;;;;;3.13;2.77;;;21.60;48.20;22.70;101257.00;;;;4948254;29;20228;-53
2022/05/14 01:30:04;;;;;;;2.73;2.53;;;21.50;48.10;22.70;101258.00;;;;4947445;29;21011;-53
2022/05/14 01:32:29;;;;;;;3.17;2.70;;;21.50;48.20;22.70;101253.00;;;;4948853;28;20240;-53
2022/05/14 01:34:55;;;;;;;3.10;2.80;;;21.60;48.20;22.70;101256.00;;;;4947832;29;20206;-52
2022/05/14 01:37:23;;;;;;;3.00;2.60;;;21.60;48.20;22.70;101258.00;;;;4948393;29;20181;-52
2022/05/14 01:39:49;;;;;;;2.80;2.60;;;21.50;48.20;22.70;101270.00;;;;4948504;28;20228;-52
2022/05/14 01:42:14;;;;;;;2.70;2.50;;;21.50;48.10;22.70;101264.00;;;;4948697;29;20638;-53
2022/05/14 01:44:42;;;;;;;3.53;2.67;;;21.50;48.20;22.70;101267.00;;;;4948578;29;20470;-53
2022/05/14 01:47:08;;;;;;;4.13;2.83;;;21.50;48.10;22.70;101269.00;;;;4948715;28;20177;-52
2022/05/14 01:49:33;;;;;;;3.30;2.60;;;21.50;48.10;22.60;101264.00;;;;4948217;29;20216;-52
2022/05/14 01:51:59;;;;;;;2.90;2.70;;;21.40;48.10;22.60;101269.00;;;;4934551;29;20609;-52
2022/05/14 01:54:25;;;;;;;5.37;2.83;;;21.40;48.10;22.60;101267.00;;;;4929293;29;20205;-52
2022/05/14 01:56:51;;;;;;;3.93;2.67;;;21.40;48.10;22.60;101266.00;;;;4930693;29;20178;-52
2022/05/14 01:59:16;;;;;;;3.73;2.90;;;21.40;48.10;22.60;101271.00;;;;4932062;29;20192;-52
2022/05/14 02:01:42;;;;;;;2.77;2.57;;;21.40;48.20;22.60;101260.00;;;;4929153;29;20170;-52
2022/05/14 02:04:11;;;;;;;3.27;2.50;;;21.40;48.10;22.50;101265.00;;;;4929390;29;20172;-51
2022/05/14 02:06:37;;;;;;;3.10;2.50;;;21.30;48.10;22.50;101275.00;;;;4929112;29;20178;-52
2022/05/14 02:09:04;;;;;;;2.60;2.40;;;21.30;48.10;22.50;101262.00;;;;4928786;29;20561;-52
2022/05/14 02:11:30;;;;;;;3.07;2.60;;;21.30;48.10;22.50;101273.00;;;;4929035;29;20189;-53
2022/05/14 02:13:56;;;;;;;2.73;2.50;;;21.30;48.20;22.50;101262.00;;;;4929141;29;20474;-53
2022/05/14 02:16:22;;;;;;;2.97;2.60;;;21.30;48.10;22.50;101264.00;;;;4929238;29;20180;-50
2022/05/14 02:18:48;;;;;;;2.70;2.50;;;21.30;48.10;22.50;101263.00;;;;4928760;29;20194;-52
2022/05/14 02:21:14;;;;;;;2.70;2.50;;;21.20;48.10;22.50;101265.00;;;;4928769;29;20693;-52
2022/05/14 02:23:40;;;;;;;2.97;2.50;;;21.20;48.20;22.40;101268.00;;;;4928997;29;20181;-52
2022/05/14 02:26:07;;;;;;;3.17;2.83;;;21.20;48.10;22.40;101272.00;;;;4928847;29;20237;-53
2022/05/14 02:28:33;;;;;;;2.60;2.40;;;21.20;48.10;22.40;101267.00;;;;4928929;29;20314;-53
2022/05/14 02:30:59;;;;;;;2.77;2.50;;;21.20;48.20;22.40;101275.00;;;;4929158;29;20170;-52
2022/05/14 02:33:25;;;;;;;2.93;2.60;;;21.20;48.10;22.40;101275.00;;;;4928630;29;20614;-52
2022/05/14 02:35:50;;;;;;;2.80;2.60;;;21.20;48.10;22.40;101273.00;;;;4928638;29;20184;-52
2022/05/14 02:38:16;;;;;;;2.97;2.67;;;21.20;48.00;22.40;101275.00;;;;4928406;29;20208;-51
2022/05/14 02:40:42;;;;;;;2.70;2.50;;;21.20;48.10;22.40;101277.00;;;;4928484;29;20639;-51
2022/05/14 02:43:09;;;;;;;2.80;2.60;;;21.10;48.00;22.30;101276.00;;;;4928692;29;20607;-52
2022/05/14 02:45:35;;;;;;;2.80;2.50;;;21.20;48.20;22.30;101274.00;;;;4929969;29;20456;-51
2022/05/14 02:48:00;;;;;;;2.60;2.40;;;21.10;48.00;22.30;101274.00;;;;4930455;29;20202;-51
2022/05/14 02:50:26;;;;;;;2.70;2.50;;;21.10;48.00;22.30;101282.00;;;;4933051;29;20612;-53
2022/05/14 02:52:52;;;;;;;2.67;2.47;;;21.00;48.00;22.30;101284.00;;;;4946321;29;20694;-52
2022/05/14 02:55:18;;;;;;;3.13;2.50;;;21.10;48.10;22.20;101272.00;;;;4947445;29;20675;-51
2022/05/14 02:57:43;;;;;;;2.80;2.60;;;21.10;48.00;22.20;101280.00;;;;4948071;28;20200;-52
2022/05/14 03:00:13;;;;;;;3.20;2.60;;;21.00;48.00;22.20;101277.00;;;;4949014;29;20663;-51
2022/05/14 03:02:39;;;;;;;2.90;2.60;;;21.00;48.00;22.20;101289.00;;;;4948145;28;20527;-51
2022/05/14 03:05:06;;;;;;;2.67;2.47;;;21.00;48.00;22.20;101286.00;;;;4947714;29;20192;-52
2022/05/14 03:07:32;;;;;;;2.83;2.53;;;21.00;48.00;22.20;101282.00;;;;4947490;28;20607;-52
2022/05/14 03:09:57;;;;;;;3.13;2.57;;;21.00;48.00;22.20;101289.00;;;;4946035;29;20231;-52
2022/05/14 03:12:24;;;;;;;2.70;2.50;;;21.00;48.40;22.20;101282.00;;;;4947492;28;20184;-52
2022/05/14 03:14:50;;;;;;;3.00;2.70;;;20.90;48.00;22.20;101279.00;;;;4947577;28;20193;-53
2022/05/14 03:17:16;;;;;;;2.80;2.60;;;20.90;47.90;22.10;101274.00;;;;4946061;29;20255;-53
2022/05/14 03:19:41;;;;;;;3.00;2.70;;;20.90;47.90;22.10;101277.00;;;;4946353;29;20666;-53
2022/05/14 03:22:07;;;;;;;3.17;2.87;;;20.90;47.90;22.10;101278.00;;;;4947322;29;20180;-51
2022/05/14 03:24:34;;;;;;;3.17;2.60;;;20.90;47.90;22.10;101282.00;;;;4947163;29;20229;-51
2022/05/14 03:27:01;;;;;;;2.70;2.50;;;20.90;47.90;22.10;101271.00;;;;4947443;28;20184;-51
2022/05/14 03:29:27;;;;;;;2.63;2.43;;;20.90;47.90;22.00;101284.00;;;;4947348;28;20211;-52
2022/05/14 03:31:52;;;;;;;3.27;2.40;;;20.80;47.90;22.00;101277.00;;;;4946973;29;20696;-52
2022/05/14 03:34:18;;;;;;;3.90;2.60;;;20.80;48.00;22.00;101270.00;;;;4937246;29;20195;-52
2022/05/14 03:36:44;;;;;;;3.87;2.40;;;20.80;48.10;22.00;101281.00;;;;4927665;29;20665;-53
2022/05/14 03:39:10;;;;;;;2.90;2.30;;;20.80;48.40;22.00;101280.00;;;;4942261;29;20222;-52
2022/05/14 03:41:35;;;;;;;3.50;2.67;;;20.80;48.40;21.90;101277.00;;;;4931384;29;20183;-52
2022/05/14 03:44:01;;;;;;;3.27;2.37;;;20.70;48.20;21.90;101277.00;;;;4931453;29;20183;-53
2022/05/14 03:46:27;;;;;;;2.80;2.50;;;20.70;48.20;21.90;101273.00;;;;4933201;29;20186;-53
2022/05/14 03:48:53;;;;;;;2.63;2.40;;;20.70;48.90;21.90;101270.00;;;;4947904;29;20619;-52
2022/05/14 03:51:19;;;;;;;4.00;2.40;;;20.70;48.30;21.90;101278.00;;;;4938978;29;20419;-53
2022/05/14 03:53:44;;;;;;;2.80;2.40;;;20.70;48.30;21.90;101275.00;;;;4949424;28;20673;-52
2022/05/14 03:56:10;;;;;;;2.70;2.30;;;20.70;48.30;21.80;101285.00;;;;4950037;29;20214;-51
2022/05/14 03:58:36;;;;;;;3.77;2.50;;;20.60;48.30;21.80;101272.00;;;;4950329;28;20197;-51
2022/05/14 04:01:03;;;;;;;3.50;2.37;;;20.60;48.20;21.80;101277.00;;;;4950161;28;20256;-51
2022/05/14 04:03:32;;;;;;;2.83;2.30;;;20.70;48.40;21.80;101277.00;;;;4948986;29;20446;-52
2022/05/14 04:05:59;;;;;;;3.33;2.50;;;20.60;48.30;21.80;101279.00;;;;4949695;28;20180;-52
2022/05/14 04:08:25;;;;;;;4.00;2.20;;;20.60;48.30;21.70;101283.00;;;;4950035;28;20344;-53
2022/05/14 04:10:50;;;;;;;2.63;2.40;;;20.60;48.30;21.70;101291.00;;;;4950287;28;20176;-51
2022/05/14 04:13:16;;;;;;;5.20;2.50;;;20.60;48.30;21.70;101289.00;;;;4949873;29;20169;-52
2022/05/14 04:15:42;;;;;;;2.87;2.40;;;20.50;48.20;21.70;101292.00;;;;4949934;29;20192;-52
2022/05/14 04:18:09;;;;;;;4.43;2.50;;;20.50;48.20;21.70;101287.00;;;;4948790;28;20434;-52
2022/05/14 04:20:35;;;;;;;2.50;2.30;;;20.50;48.20;21.70;101292.00;;;;4949863;28;20187;-51
2022/05/14 04:23:02;;;;;;;2.83;2.30;;;20.50;48.20;21.70;101294.00;;;;4950119;28;20189;-53
2022/05/14 04:25:27;;;;;;;2.40;2.20;;;20.50;48.20;21.60;101286.00;;;;4949571;28;20177;-52
2022/05/14 04:27:53;;;;;;;2.67;2.47;;;20.50;48.20;21.60;101300.00;;;;4948662;28;20333;-53
2022/05/14 04:30:19;;;;;;;2.90;2.40;;;20.50;48.20;21.60;101293.00;;;;4949647;29;20184;-52
2022/05/14 04:32:45;;;;;;;2.70;2.27;;;20.40;48.10;21.60;101293.00;;;;4950033;29;20177;-51
2022/05/14 04:35:12;;;;;;;2.53;2.20;;;20.40;48.10;21.60;101300.00;;;;4949158;29;20782;-52
2022/05/14 04:37:38;;;;;;;2.53;2.30;;;20.40;48.10;21.60;101302.00;;;;4950550;28;20300;-52
2022/05/14 04:40:08;;;;;;;3.23;2.40;;;20.40;48.10;21.50;101308.00;;;;4950709;29;20796;-52
2022/05/14 04:42:36;;;;;;;2.50;2.30;;;20.40;48.10;21.50;101306.00;;;;4950093;28;20540;-53
2022/05/14 04:45:02;;;;;;;3.37;2.40;;;20.40;48.30;21.50;101310.00;;;;4942752;28;20186;-51
2022/05/14 04:47:28;;;;;;;5.67;2.70;;;20.40;48.30;21.50;101300.00;;;;4930443;29;20214;-51
2022/05/14 04:49:54;;;;;;;2.60;2.40;;;20.40;48.30;21.50;101302.00;;;;4930495;29;21006;-54
2022/05/14 04:52:19;;;;;;;3.13;2.47;;;20.30;48.20;21.50;101306.00;;;;4945965;28;20734;-51
2022/05/14 04:54:45;;;;;;;3.57;2.60;;;20.30;48.30;21.50;101307.00;;;;4949187;29;20211;-52
2022/05/14 04:57:11;;;;;;;6.43;2.60;;;20.30;48.20;21.50;101302.00;;;;4949378;29;20178;-51
2022/05/14 04:59:37;;;;;;;4.17;2.40;;;20.30;48.30;21.50;101310.00;;;;4949439;29;20709;-50
2022/05/14 05:04:47;;;;;;;6.57;2.73;;;20.40;48.30;21.50;101317.00;;;;4949100;29;20257;-53
2022/05/14 05:07:13;;;;;;;8.93;2.90;;;20.40;48.40;21.40;101313.00;;;;4948931;28;20189;-53
2022/05/14 05:09:38;;;;;;;5.50;2.60;;;20.40;48.50;21.40;101314.00;;;;4949368;29;20174;-53
2022/05/14 05:12:05;;;;;;;4.10;2.67;;;20.30;48.50;21.40;101329.00;;;;4949232;29;20174;-51
2022/05/14 05:14:30;;;;;;;3.47;2.53;;;20.30;48.50;21.40;101319.00;;;;4949056;28;20209;-51
2022/05/14 05:16:57;;;;;;;3.40;2.40;;;20.30;48.50;21.40;101323.00;;;;4948812;28;20713;-51
2022/05/14 05:19:23;;;;;;;6.83;3.13;;;20.30;48.50;21.40;101318.00;;;;4948306;29;20205;-53
2022/05/14 05:21:49;;;;;;;5.20;2.70;;;20.30;48.50;21.40;101319.00;;;;4948831;28;20189;-52
2022/05/14 05:24:15;;;;;;;4.57;2.40;;;20.30;48.50;21.40;101331.00;;;;4948999;28;20188;-52
2022/05/14 05:26:41;;;;;;;5.57;2.90;;;20.30;48.50;21.40;101331.00;;;;4947679;29;20704;-51
2022/05/14 05:29:06;;;;;;;4.07;2.60;;;20.30;48.50;21.40;101331.00;;;;4948774;29;20201;-52
2022/05/14 05:31:32;;;;;;;4.80;2.70;;;20.30;48.50;21.40;101331.00;;;;4948613;29;20177;-52
2022/05/14 05:33:59;;;;;;;4.87;2.70;;;20.20;48.50;21.30;101339.00;;;;4948867;29;20773;-52
2022/05/14 05:36:25;;;;;;;4.87;2.50;;;20.30;48.60;21.30;101343.00;;;;4949513;28;20594;-51
2022/05/14 05:38:54;;;;;;;6.30;2.73;;;20.20;48.50;20.90;101341.00;;;;4948932;29;20200;-51
2022/05/14 05:41:20;;;;;;;3.70;2.53;;;20.20;48.60;21.30;101347.00;;;;4949257;28;20205;-52
2022/05/14 05:43:46;;;;;;;5.40;2.60;;;20.20;48.60;21.30;101339.00;;;;4948168;29;20182;-51
2022/05/14 05:46:12;;;;;;;3.47;2.50;;;20.30;48.70;21.30;101346.00;;;;4948655;28;20257;-51
2022/05/14 05:48:38;;;;;;;3.53;2.57;;;20.20;48.60;21.30;101348.00;;;;4948190;28;20895;-51
2022/05/14 05:51:04;;;;;;;3.03;2.53;;;20.20;48.70;21.30;101349.00;;;;4941957;28;20178;-53
2022/05/14 05:58:58;;;;;;;2.70;2.30;;;20.20;48.80;21.20;101367.00;;;;4928762;29;20197;-52
2022/05/14 06:01:24;;;;;;;4.30;2.40;;;20.10;48.80;21.20;101372.00;;;;4929145;29;20171;-52
2022/05/14 06:03:51;;;;;;;3.30;2.43;;;20.20;48.90;21.20;101357.00;;;;4928580;29;20208;-52
2022/05/14 06:06:18;;;;;;;3.80;2.30;;;20.10;48.90;21.00;101368.00;;;;4929186;29;20744;-52
2022/05/14 06:08:43;;;;;;;4.70;2.40;;;20.10;48.90;21.20;101360.00;;;;4929132;29;20260;-52
2022/05/14 06:11:09;;;;;;;2.97;2.47;;;20.10;48.90;21.20;101357.00;;;;4929540;29;20174;-52
2022/05/14 06:13:35;;;;;;;2.40;2.20;;;20.10;49.00;21.20;101361.00;;;;4928808;29;20170;-51
2022/05/14 06:16:01;;;;;;;2.57;2.30;;;20.10;49.00;21.20;101359.00;;;;4928614;29;20557;-52
2022/05/14 06:18:27;;;;;;;3.83;2.40;;;20.10;48.90;21.20;101359.00;;;;4927181;29;20254;-52
2022/05/14 06:20:53;;;;;;;2.80;2.50;;;20.10;48.90;21.20;101369.00;;;;4928718;29;20189;-51
2022/05/14 06:23:18;;;;;;;3.47;2.33;;;20.10;49.00;21.20;101367.00;;;;4928658;29;20178;-53
2022/05/14 06:25:44;;;;;;;2.83;2.30;;;20.10;49.10;21.20;101373.00;;;;4928438;29;20182;-50
2022/05/14 06:28:10;;;;;;;2.80;2.40;;;20.10;49.20;21.10;101371.00;;;;4928711;29;20205;-51
2022/05/14 06:30:41;;;;;;;2.53;2.30;;;20.10;49.20;21.20;101372.00;;;;4928541;29;20783;-51
2022/05/14 06:33:07;;;;;;;2.73;2.30;;;20.10;49.20;21.10;101372.00;;;;4928969;29;20245;-52
2022/05/14 06:35:32;;;;;;;2.67;2.40;;;20.00;49.20;21.10;101363.00;;;;4928703;29;20202;-52
2022/05/14 06:37:59;;;;;;;2.30;2.10;;;20.10;49.30;21.10;101372.00;;;;4928554;29;20277;-52
2022/05/14 06:40:25;;;;;;;3.97;2.43;;;20.10;49.30;21.10;101375.00;;;;4928726;29;20237;-53
2022/05/14 06:42:51;;;;;;;3.97;2.47;;;20.00;49.30;21.10;101379.00;;;;4928727;29;20178;-52
2022/05/14 06:45:16;;;;;;;2.57;2.20;;;20.00;49.40;21.10;101371.00;;;;4928649;29;20735;-52
2022/05/14 06:47:44;;;;;;;3.07;2.43;;;20.00;49.40;21.10;101377.00;;;;4929393;29;20258;-52
2022/05/14 06:50:09;;;;;;;2.40;2.20;;;20.00;49.50;21.10;101383.00;;;;4930194;29;20681;-52
2022/05/14 06:52:35;;;;;;;3.50;2.33;;;20.00;49.60;21.10;101383.00;;;;4947860;29;20177;-52
2022/05/14 06:55:01;;;;;;;3.17;2.20;;;20.00;49.70;21.10;101384.00;;;;4909079;29;20233;-51
2022/05/14 06:57:27;;;;;;;2.60;2.10;;;20.00;49.70;21.10;101386.00;;;;4927274;29;20668;-51
2022/05/14 06:59:54;;;;;;;2.77;2.00;;;20.00;49.70;20.80;101386.00;;;;4927208;29;20202;-52
2022/05/14 07:02:20;;;;;;;2.67;2.13;;;20.00;49.80;21.00;101388.00;;;;4928474;29;20190;-52
2022/05/14 07:07:30;;;;;;;2.50;2.30;;;20.00;49.90;21.00;101381.00;;;;4927135;29;20284;-53
2022/05/14 07:09:56;;;;;;;3.07;2.20;;;20.00;49.90;21.00;101384.00;;;;4929009;29;20187;-52
2022/05/14 07:12:22;;;;;;;2.57;2.10;;;20.00;50.00;21.00;101390.00;;;;4928445;29;20182;-54
2022/05/14 07:14:47;;;;;;;3.07;2.20;;;20.00;50.20;21.00;101387.00;;;;4928651;29;20241;-53
2022/05/14 07:17:13;;;;;;;2.43;2.10;;;20.00;50.20;21.00;101392.00;;;;4931941;29;20171;-52
2022/05/14 07:19:39;;;;;;;2.43;2.23;;;20.00;50.20;21.00;101384.00;;;;4932446;29;20228;-53
2022/05/14 07:22:06;;;;;;;4.30;2.40;;;20.00;50.20;21.00;101395.00;;;;4934902;29;20884;-52
2022/05/14 07:24:32;;;;;;;2.10;1.90;;;20.00;50.20;21.00;101384.00;;;;4932639;29;20738;-52
2022/05/14 07:27:01;;;;;;;2.33;2.13;;;20.00;50.80;21.00;101382.00;;;;4849943;29;20197;-52
2022/05/14 07:29:27;;;;;;;2.20;2.00;;;19.90;50.20;21.00;101384.00;;;;4948021;28;20296;-52
2022/05/14 07:31:53;;;;;;;2.37;2.17;;;19.90;50.30;21.00;101380.00;;;;4949329;29;20174;-52
2022/05/14 07:34:19;;;;;;;2.57;2.17;;;20.00;50.60;21.00;101373.00;;;;4950627;28;20289;-46
2022/05/14 07:37:03;;;;;;;5.97;3.17;;;19.90;50.70;21.00;101385.00;;;;4950548;28;20808;-46
2022/05/14 07:39:36;;;;;;;5.47;2.97;;;19.90;49.40;21.00;101387.00;;;;4950879;28;20255;-45
2022/05/14 07:42:04;;;;;;;4.80;3.00;;;19.90;49.40;20.90;101384.00;;;;4950478;28;20647;-45
2022/05/14 07:44:34;;;;;;;5.63;2.97;;;19.90;49.40;20.90;101381.00;;;;4943212;29;20274;-45
2022/05/14 07:47:00;;;;;;;5.83;3.30;;;19.80;49.60;20.90;101382.00;;;;4929986;29;20178;-44
2022/05/14 07:49:26;;;;;;;7.60;3.27;;;19.80;49.60;20.90;101385.00;;;;4934906;29;20209;-46
2022/05/14 07:51:55;;;;;;;4.67;2.87;;;19.70;49.30;20.80;101388.00;;;;4950623;28;20248;-46
2022/05/14 07:54:22;;;;;;;4.20;2.67;;;19.80;49.50;20.80;101373.00;;;;4948942;29;20198;-46
2022/05/14 07:56:47;;;;;;;5.27;2.67;;;19.70;49.60;20.80;101381.00;;;;4949216;29;20182;-46
2022/05/14 07:59:15;;;;;;;6.07;3.30;;;19.80;50.00;20.80;101386.00;;;;4949997;29;20213;-47
2022/05/14 08:01:41;;;;;;;6.60;3.23;;;19.80;49.70;20.80;101376.00;;;;4950232;28;20526;-45
2022/05/14 08:04:07;;;;;;;7.27;3.40;;;19.80;49.50;20.80;101379.00;;;;4950541;28;20559;-45
2022/05/14 08:06:33;;;;;;;4.47;2.93;;;19.70;49.30;20.80;101385.00;;;;4950240;28;20184;-46
2022/05/14 08:08:59;;;;;;;4.83;2.97;;;19.70;49.30;20.70;101363.00;;;;4949868;29;20743;-45
2022/05/14 08:11:26;;;;;;;4.30;3.00;;;19.70;49.30;20.70;101370.00;;;;4950439;29;20200;-45
2022/05/14 08:13:53;;;;;;;6.27;3.17;;;19.60;49.50;20.70;101368.00;;;;4949787;28;20221;-45
2022/05/14 08:16:20;;;;;;;6.07;2.93;;;19.60;49.80;20.70;101371.00;;;;4950076;29;20177;-45
2022/05/14 08:18:46;;;;;;;5.53;3.10;;;19.60;49.90;20.70;101366.00;;;;4949512;28;20193;-46
2022/05/14 08:26:40;;;;;;;8.67;3.70;;;19.70;50.00;20.70;101375.00;;;;4871373;28;20215;-46
2022/05/14 08:29:06;;;;;;;7.83;3.27;;;19.60;50.30;20.70;101376.00;;;;4949772;29;20567;-46
2022/05/14 08:31:31;;;;;;;6.27;2.87;;;19.60;49.90;20.70;101376.00;;;;4950826;28;20177;-46
2022/05/14 08:33:57;;;;;;;6.03;3.37;;;19.70;50.00;20.70;101378.00;;;;4954773;28;20224;-46
2022/05/14 08:36:23;;;;;;;6.40;3.10;;;19.70;50.00;20.70;101371.00;;;;4953534;28;20174;-44
2022/05/14 08:38:49;;;;;;;4.23;2.83;;;19.60;49.90;20.40;101378.00;;;;4950405;28;20193;-45
2022/05/14 08:41:15;;;;;;;5.53;2.93;;;19.60;49.80;20.70;101377.00;;;;4949798;28;20566;-46
2022/05/14 08:43:49;;;;;;;5.60;2.63;;;19.70;50.40;20.70;101372.00;;;;4949799;28;20208;-47
2022/05/14 08:46:21;;;;;;;4.93;2.97;;;19.60;50.00;20.70;101368.00;;;;4948504;29;20169;-45
2022/05/14 08:48:56;;;;;;;6.13;3.30;;;19.70;50.50;20.70;101374.00;;;;4948444;29;20285;-47
2022/05/14 08:51:30;;;;;;;5.57;2.93;;;19.60;50.40;20.70;101367.00;;;;4949342;28;20220;-47
2022/05/14 08:53:56;;;;;;;4.23;3.10;;;19.60;50.70;20.70;101367.00;;;;4932865;29;20268;-45
2022/05/14 08:56:36;;;;;;;6.77;3.20;;;19.60;50.40;20.70;101365.00;;;;4949363;29;20238;-45
2022/05/14 08:59:08;;;;;;;4.83;2.77;;;19.60;50.60;20.70;101364.00;;;;4945073;29;20209;-45
2022/05/14 09:01:38;;;;;;;6.40;3.00;;;19.70;50.80;20.70;101361.00;;;;4948933;28;20174;-46
2022/05/14 09:04:04;;;;;;;5.40;3.23;;;19.60;50.60;20.70;101362.00;;;;4942766;28;20826;-46
2022/05/14 09:06:30;;;;;;;4.53;3.00;;;19.60;50.50;20.70;101356.00;;;;4914690;29;20273;-47
2022/05/14 09:08:56;;;;;;;4.70;2.90;;;19.60;52.00;20.70;101350.00;;;;4944159;29;20209;-46
2022/05/14 09:11:24;;;;;;;6.00;3.13;;;19.60;51.30;20.70;101363.00;;;;4952031;28;20555;-45
2022/05/14 09:13:59;;;;;;;5.73;3.10;;;19.60;51.10;20.70;101361.00;;;;4952033;28;20201;-46
2022/05/14 09:16:35;;;;;;;6.20;3.30;;;19.60;53.10;20.70;101361.00;;;;4951712;29;20164;-45
2022/05/14 09:19:00;;;;;;;6.87;3.20;;;19.60;51.40;20.70;101358.00;;;;4951452;28;20192;-47
2022/05/14 09:21:30;;;;;;;5.47;3.23;;;19.50;51.20;20.70;101355.00;;;;4945631;28;20186;-45
2022/05/14 09:24:17;;;;;;;7.00;3.10;;;19.50;51.00;20.70;101347.00;;;;4932982;29;20186;-45
2022/05/14 09:26:43;;;;;;;6.47;3.13;;;19.50;51.40;20.70;101349.00;;;;4875568;29;20185;-45
2022/05/14 09:29:29;;;;;;;6.60;3.40;;;19.60;51.40;20.70;101355.00;;;;4951486;29;20606;-46
2022/05/14 09:31:59;;;;;;;5.60;3.30;;;19.50;51.00;20.70;101357.00;;;;4937302;28;20269;-45
2022/05/14 09:34:26;;;;;;;6.33;3.30;;;19.60;51.20;20.70;101349.00;;;;4938970;29;20213;-45
2022/05/14 09:36:51;;;;;;;6.77;3.20;;;19.60;51.10;20.70;101347.00;;;;4958016;28;20235;-45
2022/05/14 09:39:26;;;;;;;6.13;3.30;;;19.60;52.80;20.70;101351.00;;;;4955799;28;20194;-45
2022/05/14 09:41:56;;;;;;;6.80;3.00;;;19.60;53.30;20.70;101347.00;;;;4953173;28;20176;-44
2022/05/14 09:44:44;;;;;;;3.97;2.67;;;19.70;53.50;20.80;101352.00;;;;4949964;29;20600;-47
2022/05/14 09:47:16;;;;;;;5.23;3.20;;;19.70;52.70;20.70;101348.00;;;;4951259;29;20523;-46
2022/05/14 09:49:53;;;;;;;8.30;3.50;;;19.60;52.00;20.70;101341.00;;;;4951324;28;20260;-51
2022/05/14 09:52:24;;;;;;;8.43;3.63;;;19.60;52.40;20.70;101352.00;;;;4949783;29;20256;-51
2022/05/14 09:54:50;;;;;;;6.40;3.10;;;19.70;53.40;20.80;101351.00;;;;4951467;28;20201;-51
2022/05/14 09:57:40;;;;;;;7.80;3.40;;;19.70;53.70;20.80;101355.00;;;;4949860;29;20184;-52
2022/05/14 10:00:56;;;;;;;9.10;3.33;;;19.80;54.10;20.80;101343.00;;;;4835217;29;20190;-51
2022/05/14 10:04:28;;;;;;;7.07;3.20;;;19.90;54.20;20.90;101332.00;;;;4904891;29;20198;-51
2022/05/14 10:07:22;;;;;;;7.10;3.13;;;20.00;54.50;20.90;101349.00;;;;4877463;29;20171;-51
2022/05/14 10:10:19;;;;;;;7.40;3.07;;;20.00;54.50;20.90;101338.00;;;;4860256;29;20195;-52
2022/05/14 10:12:55;;;;;;;6.17;3.20;;;20.10;54.50;20.90;101331.00;;;;4931080;29;20254;-53
2022/05/14 10:15:46;;;;;;;7.30;3.00;;;20.20;54.70;21.00;101333.00;;;;4934965;29;20197;-53
2022/05/14 10:18:39;;;;;;;6.87;3.00;;;20.10;54.60;21.00;101356.00;;;;4933042;29;20277;-50
2022/05/14 10:21:17;;;;;;;5.13;2.57;;;20.10;54.80;21.00;101332.00;;;;4932156;29;20233;-51
2022/05/14 10:27:08;;;;;;;7.23;3.00;;;20.20;55.00;21.10;101348.00;;;;4930826;29;20566;-52
2022/05/14 10:30:08;;;;;;;3.70;2.43;;;20.20;55.10;21.10;101341.00;;;;4930473;29;20178;-52
2022/05/14 10:32:34;;;;;;;4.73;2.70;;;20.30;55.30;21.10;101334.00;;;;4932164;29;20173;-52
2022/05/14 10:35:24;;;;;;;4.50;2.70;;;20.30;55.50;21.10;101327.00;;;;4930306;29;20202;-51
2022/05/14 10:38:08;;;;;;;5.07;2.77;;;20.40;55.50;21.20;101333.00;;;;4945837;29;20248;-53
2022/05/14 10:40:48;;;;;;;4.53;2.60;;;20.40;55.40;21.20;101336.00;;;;4930485;29;20159;-52
2022/05/14 10:43:48;;;;;;;4.77;2.53;;;20.40;55.60;21.20;101339.00;;;;4930621;29;20197;-52
2022/05/14 10:46:18;;;;;;;4.33;2.40;;;20.40;55.60;21.20;101337.00;;;;4930432;29;20655;-52
2022/05/14 10:49:41;;;;;;;3.83;2.60;;;20.50;55.70;21.30;101329.00;;;;4929628;29;20270;-52
2022/05/14 10:52:16;;;;;;;4.80;2.67;;;20.50;55.70;21.30;101333.00;;;;4898695;29;20664;-52
2022/05/14 10:54:43;;;;;;;5.10;2.60;;;20.50;55.80;21.30;101331.00;;;;4930204;29;20197;-52
2022/05/14 10:57:25;;;;;;;2.90;2.20;;;20.50;55.80;21.40;101327.00;;;;4914200;29;20178;-52
2022/05/14 10:59:57;;;;;;;3.37;2.47;;;20.60;55.90;21.40;101337.00;;;;4930133;29;20322;-52
2022/05/14 11:02:26;;;;;;;5.53;2.50;;;20.60;56.00;21.40;101330.00;;;;4930286;29;20617;-52
2022/05/14 11:04:52;;;;;;;4.47;2.30;;;20.60;56.00;21.40;101325.00;;;;4930239;29;20261;-52
2022/05/14 11:07:39;;;;;;;3.97;2.37;;;20.60;55.80;21.50;101331.00;;;;4930241;29;20257;-52
2022/05/14 11:10:32;;;;;;;3.30;2.50;;;20.70;55.90;21.50;101323.00;;;;4930378;29;20501;-52
2022/05/14 11:13:20;;;;;;;3.50;2.30;;;20.70;55.70;21.50;101330.00;;;;4931422;29;20186;-49
2022/05/14 11:15:46;;;;;;;3.07;2.40;;;20.70;55.50;21.50;101335.00;;;;4930467;29;20286;-51
2022/05/14 11:18:15;;;;;;;4.50;2.53;;;20.80;55.50;21.60;101332.00;;;;4929965;29;20686;-51
2022/05/14 11:20:57;;;;;;;4.77;2.53;;;20.80;55.70;21.60;101320.00;;;;4931718;29;20187;-51